Time;durP1;ratioP1;P1;durP2;ratioP2;P2;SDS_P1;SDS_P2;PMS_P1;PMS_P2;Temp;Humidity;BMP_temperature;BMP_pressure;BME280_temperature;BME280_humidity;BME280_pressure;Samples;Min_cycle;Max_cycle;Signal;HPM_P1;HPM_P2
2021/10/01 00:01:14;;;;;;;12.95;9.40;;;;;;;11.75;79.93;95315.94;827315;71;32720;-80
2021/10/01 00:16:11;;;;;;;12.03;9.45;;;;;;;11.49;80.73;95300.86;829299;71;31013;-79
2021/10/01 00:31:28;;;;;;;11.15;9.95;;;;;;;11.20;82.33;95304.96;833696;71;32977;-77
2021/10/01 00:46:11;;;;;;;13.85;9.78;;;;;;;11.03;83.54;95293.50;833690;71;31364;-78
2021/10/01 01:01:11;;;;;;;12.23;9.53;;;;;;;10.95;84.15;95294.06;827984;71;29764;-79
2021/10/01 01:16:14;;;;;;;11.30;9.23;;;;;;;10.94;84.69;95290.39;833560;71;30408;-78
2021/10/01 01:31:47;;;;;;;9.50;8.50;;;;;;;11.47;84.68;95285.36;833618;71;32711;-81
2021/10/01 01:46:10;;;;;;;11.03;9.70;;;;;;;11.86;81.20;95276.68;827912;71;30388;-80
2021/10/01 02:01:16;;;;;;;12.13;9.13;;;;;;;11.45;82.95;95272.25;827026;71;32745;-78
2021/10/01 02:16:11;;;;;;;10.70;9.58;;;;;;;12.06;82.13;95290.73;833616;71;30334;-83
2021/10/01 02:31:11;;;;;;;11.40;9.40;;;;;;;12.51;80.50;95293.47;833688;71;29566;-80
2021/10/01 02:46:08;;;;;;;10.55;9.28;;;;;;;13.03;78.55;95278.61;833616;71;29801;-79
2021/10/01 03:16:14;;;;;;;11.25;8.75;;;;;;;13.47;74.41;95295.75;833598;71;33556;-80
2021/10/01 03:31:09;;;;;;;10.28;9.18;;;;;;;13.38;74.66;95295.58;833663;71;29440;-78
2021/10/01 03:46:10;;;;;;;9.98;8.98;;;;;;;13.29;74.78;95290.17;827466;71;30295;-80
2021/10/01 04:01:09;;;;;;;10.32;9.20;;;;;;;12.93;76.09;95291.14;829439;71;30363;-75
2021/10/01 04:16:14;;;;;;;13.08;9.75;;;;;;;12.96;76.42;95291.36;833524;71;30402;-77
2021/10/01 04:31:22;;;;;;;16.93;10.32;;;;;;;12.76;77.17;95296.34;833801;71;32873;-76
2021/10/01 10:01:10;;;;;;;8.38;6.92;;;;;;;15.52;44.61;95337.80;827907;71;30068;-74
2021/10/01 13:31:09;;;;;;;11.30;10.10;;;;;;;16.26;45.40;95208.23;828454;71;29763;-77
2021/10/01 13:46:10;;;;;;;9.55;8.60;;;;;;;16.33;45.22;95207.78;828170;71;29665;-76
2021/10/01 14:01:09;;;;;;;10.15;8.55;;;;;;;16.42;45.73;95195.34;828332;71;30053;-78
2021/10/01 14:16:14;;;;;;;8.90;8.20;;;;;;;16.52;45.09;95183.69;827448;71;32753;-77
2021/10/01 14:31:14;;;;;;;9.15;8.25;;;;;;;16.53;45.00;95180.73;833758;71;33148;-78
2021/10/01 14:46:14;;;;;;;9.08;8.25;;;;;;;16.13;46.44;95180.75;827189;71;33548;-77
2021/10/01 15:16:12;;;;;;;8.45;7.53;;;;;;;15.37;48.47;95186.08;827817;71;32008;-75
2021/10/01 15:31:11;;;;;;;8.90;8.00;;;;;;;14.88;49.31;95173.95;835004;71;30373;-78
2021/10/01 15:46:08;;;;;;;9.18;8.28;;;;;;;14.83;50.23;95197.28;833841;71;29813;-75
2021/10/01 16:01:16;;;;;;;10.23;8.10;;;;;;;14.51;51.75;95207.42;828619;71;32062;-76
2021/10/01 16:16:15;;;;;;;10.35;7.97;;;;;;;14.14;53.03;95214.45;826946;71;32839;-75
2021/10/01 16:31:12;;;;;;;8.78;7.40;;;;;;;13.55;54.78;95224.69;828124;71;30772;-76
2021/10/01 16:46:14;;;;;;;9.68;7.90;;;;;;;13.23;55.87;95233.30;827215;71;31728;-75
2021/10/01 17:01:10;;;;;;;23.98;12.78;;;;;;;12.89;56.74;95242.18;828774;71;29964;-76
2021/10/01 17:16:15;;;;;;;13.03;7.80;;;;;;;13.74;55.70;95237.05;827986;71;32198;-78
2021/10/01 17:31:08;;;;;;;13.10;11.43;;;;;;;14.28;63.80;95238.77;821425;71;28604;-76
2021/10/01 17:46:11;;;;;;;10.38;9.33;;;;;;;14.77;54.69;95243.93;828970;71;30952;-76
2021/10/01 18:16:09;;;;;;;12.40;9.25;;;;;;;13.06;57.45;95258.84;827781;71;28940;-83
2021/10/01 18:31:09;;;;;;;11.33;9.70;;;;;;;12.91;58.26;95270.88;828924;71;28757;-80
2021/10/01 18:46:21;;;;;;;9.73;8.73;;;;;;;12.71;59.31;95272.72;827894;71;28749;-80
2021/10/01 19:01:13;;;;;;;8.80;7.92;;;;;;;12.58;59.20;95270.20;827892;71;31680;-79
2021/10/01 19:16:08;;;;;;;9.23;7.97;;;;;;;12.61;58.86;95274.12;828838;71;28608;-82
2021/10/01 19:31:10;;;;;;;8.75;7.85;;;;;;;12.46;59.00;95271.12;828043;71;29295;-81
2021/10/01 19:46:15;;;;;;;7.95;7.25;;;;;;;12.32;59.44;95276.27;827401;71;31674;-80
2021/10/01 22:01:15;;;;;;;6.00;4.90;;;;;;;10.56;61.72;95237.02;826933;71;32706;-80
2021/10/01 22:20:04;;;;;;;6.22;5.33;;;;;;;10.36;62.97;95225.25;827164;71;32633;-80
2021/10/01 22:31:16;;;;;;;6.72;5.00;;;;;;;10.30;62.55;95213.20;833742;71;32581;-78
2021/10/01 22:46:10;;;;;;;5.92;5.00;;;;;;;10.30;62.41;95208.77;833691;71;30281;-81
2021/10/01 23:01:15;;;;;;;5.90;5.40;;;;;;;10.10;63.14;95210.89;835289;70;32670;-80
